sensor_id;sensor_type;location;lat;lon;timestamp;pressure;altitude;pressure_sealevel;temperature;humidity
32237;BME280;18726;44.732;10.550;2023-02-03T00:01:49;101975.00;;;6.80;100.00
32237;BME280;18726;44.732;10.550;2023-02-03T00:04:53;101982.63;;;6.25;100.00
32237;BME280;18726;44.732;10.550;2023-02-03T00:07:57;101976.13;;;6.73;100.00
32237;BME280;18726;44.732;10.550;2023-02-03T00:11:01;101979.66;;;7.35;100.00
32237;BME280;18726;44.732;10.550;2023-02-03T00:14:05;101972.47;;;7.63;100.00
32237;BME280;18726;44.732;10.550;2023-02-03T00:17:10;101975.75;;;7.79;100.00
32237;BME280;18726;44.732;10.550;2023-02-03T00:20:14;101979.25;;;7.79;100.00
32237;BME280;18726;44.732;10.550;2023-02-03T00:23:18;101975.38;;;7.67;100.00
32237;BME280;18726;44.732;10.550;2023-02-03T00:26:22;101974.59;;;7.10;100.00
32237;BME280;18726;44.732;10.550;2023-02-03T00:29:28;101985.81;;;5.64;100.00
32237;BME280;18726;44.732;10.550;2023-02-03T00:32:32;101988.84;;;5.08;100.00
32237;BME280;18726;44.732;10.550;2023-02-03T00:35:37;101993.22;;;4.94;100.00
32237;BME280;18726;44.732;10.550;2023-02-03T00:38:42;101984.50;;;5.56;100.00
32237;BME280;18726;44.732;10.550;2023-02-03T00:41:47;101977.03;;;6.16;100.00
32237;BME280;18726;44.732;10.550;2023-02-03T00:44:51;101993.88;;;5.69;100.00
32237;BME280;18726;44.732;10.550;2023-02-03T00:47:54;101990.16;;;5.60;100.00
32237;BME280;18726;44.732;10.550;2023-02-03T00:50:58;101991.28;;;6.22;100.00
32237;BME280;18726;44.732;10.550;2023-02-03T00:54:02;101998.53;;;6.98;100.00
32237;BME280;18726;44.732;10.550;2023-02-03T00:57:06;101990.84;;;6.38;100.00
32237;BME280;18726;44.732;10.550;2023-02-03T01:00:11;102009.00;;;6.33;100.00
32237;BME280;18726;44.732;10.550;2023-02-03T01:03:15;102009.59;;;6.25;100.00
32237;BME280;18726;44.732;10.550;2023-02-03T01:06:20;102007.47;;;6.22;100.00
32237;BME280;18726;44.732;10.550;2023-02-03T01:09:23;102006.66;;;6.21;100.00
32237;BME280;18726;44.732;10.550;2023-02-03T01:12:29;101994.63;;;6.37;100.00
32237;BME280;18726;44.732;10.550;2023-02-03T01:15:33;101999.69;;;6.44;100.00
32237;BME280;18726;44.732;10.550;2023-02-03T01:18:37;102001.53;;;5.86;100.00
32237;BME280;18726;44.732;10.550;2023-02-03T01:21:40;101993.78;;;5.79;100.00
32237;BME280;18726;44.732;10.550;2023-02-03T01:24:44;101997.47;;;5.88;100.00
32237;BME280;18726;44.732;10.550;2023-02-03T01:27:49;102014.53;;;5.45;100.00
32237;BME280;18726;44.732;10.550;2023-02-03T01:30:53;102015.22;;;5.11;100.00
32237;BME280;18726;44.732;10.550;2023-02-03T01:33:57;102004.94;;;4.54;100.00
32237;BME280;18726;44.732;10.550;2023-02-03T01:37:02;102010.09;;;4.25;100.00
32237;BME280;18726;44.732;10.550;2023-02-03T01:40:06;102010.66;;;4.32;100.00
32237;BME280;18726;44.732;10.550;2023-02-03T01:43:26;102013.34;;;4.32;100.00
32237;BME280;18726;44.732;10.550;2023-02-03T01:46:37;102019.75;;;4.46;100.00
32237;BME280;18726;44.732;10.550;2023-02-03T01:49:48;102013.22;;;4.67;100.00
32237;BME280;18726;44.732;10.550;2023-02-03T01:52:57;101996.50;;;4.86;100.00
32237;BME280;18726;44.732;10.550;2023-02-03T01:56:03;101993.97;;;5.04;100.00
32237;BME280;18726;44.732;10.550;2023-02-03T01:59:07;101994.03;;;5.43;100.00
32237;BME280;18726;44.732;10.550;2023-02-03T02:02:11;101985.34;;;5.91;100.00
32237;BME280;18726;44.732;10.550;2023-02-03T02:05:27;101992.88;;;5.94;100.00
32237;BME280;18726;44.732;10.550;2023-02-03T02:08:32;101993.13;;;6.26;100.00
32237;BME280;18726;44.732;10.550;2023-02-03T02:11:36;102000.63;;;6.34;100.00
32237;BME280;18726;44.732;10.550;2023-02-03T02:14:41;102006.22;;;6.09;100.00
32237;BME280;18726;44.732;10.550;2023-02-03T02:18:21;102008.03;;;5.85;100.00
32237;BME280;18726;44.732;10.550;2023-02-03T02:21:33;102001.44;;;5.67;100.00
32237;BME280;18726;44.732;10.550;2023-02-03T02:25:14;101998.66;;;5.77;100.00
32237;BME280;18726;44.732;10.550;2023-02-03T02:32:21;101997.56;;;5.78;100.00
32237;BME280;18726;44.732;10.550;2023-02-03T02:39:09;101999.22;;;5.35;100.00
32237;BME280;18726;44.732;10.550;2023-02-03T02:45:25;102010.00;;;4.70;100.00
32237;BME280;18726;44.732;10.550;2023-02-03T02:48:35;102012.16;;;4.63;100.00
32237;BME280;18726;44.732;10.550;2023-02-03T02:51:43;102001.94;;;4.65;100.00
32237;BME280;18726;44.732;10.550;2023-02-03T02:54:51;102007.31;;;4.65;100.00
32237;BME280;18726;44.732;10.550;2023-02-03T02:58:04;102011.09;;;4.64;100.00
32237;BME280;18726;44.732;10.550;2023-02-03T03:01:10;102006.66;;;4.99;100.00
32237;BME280;18726;44.732;10.550;2023-02-03T03:04:18;101999.00;;;6.04;100.00
32237;BME280;18726;44.732;10.550;2023-02-03T03:07:26;101996.19;;;6.67;100.00
32237;BME280;18726;44.732;10.550;2023-02-03T03:10:31;101994.19;;;6.54;100.00
32237;BME280;18726;44.732;10.550;2023-02-03T03:13:43;102004.75;;;5.49;100.00
32237;BME280;18726;44.732;10.550;2023-02-03T03:16:52;102009.28;;;5.14;100.00
32237;BME280;18726;44.732;10.550;2023-02-03T03:20:02;102011.09;;;4.64;100.00
32237;BME280;18726;44.732;10.550;2023-02-03T03:23:17;102013.06;;;4.08;100.00
32237;BME280;18726;44.732;10.550;2023-02-03T03:29:35;102013.78;;;3.27;100.00
32237;BME280;18726;44.732;10.550;2023-02-03T03:32:41;102019.13;;;3.12;100.00
32237;BME280;18726;44.732;10.550;2023-02-03T03:36:01;102021.00;;;3.22;100.00
32237;BME280;18726;44.732;10.550;2023-02-03T03:39:21;102012.47;;;3.35;100.00
32237;BME280;18726;44.732;10.550;2023-02-03T03:49:04;101987.09;;;4.83;100.00
32237;BME280;18726;44.732;10.550;2023-02-03T03:52:20;101995.53;;;4.51;100.00
32237;BME280;18726;44.732;10.550;2023-02-03T03:55:28;101998.72;;;4.63;100.00
32237;BME280;18726;44.732;10.550;2023-02-03T03:58:33;102004.38;;;5.21;100.00
32237;BME280;18726;44.732;10.550;2023-02-03T04:01:39;102013.47;;;5.35;100.00
32237;BME280;18726;44.732;10.550;2023-02-03T04:04:45;102014.03;;;5.32;100.00
32237;BME280;18726;44.732;10.550;2023-02-03T04:07:51;102015.03;;;4.92;100.00
32237;BME280;18726;44.732;10.550;2023-02-03T04:10:54;102027.28;;;4.44;100.00
32237;BME280;18726;44.732;10.550;2023-02-03T04:13:58;102026.78;;;4.06;100.00
32237;BME280;18726;44.732;10.550;2023-02-03T04:17:03;102035.38;;;3.73;100.00
32237;BME280;18726;44.732;10.550;2023-02-03T04:20:07;102040.19;;;3.61;100.00
32237;BME280;18726;44.732;10.550;2023-02-03T04:23:11;102037.47;;;3.46;100.00
32237;BME280;18726;44.732;10.550;2023-02-03T04:26:14;102027.75;;;3.29;100.00
32237;BME280;18726;44.732;10.550;2023-02-03T04:29:18;102050.38;;;3.44;100.00
32237;BME280;18726;44.732;10.550;2023-02-03T04:32:22;102041.00;;;3.61;100.00
32237;BME280;18726;44.732;10.550;2023-02-03T04:35:25;102053.63;;;3.76;100.00
32237;BME280;18726;44.732;10.550;2023-02-03T04:38:29;102041.56;;;5.24;100.00
32237;BME280;18726;44.732;10.550;2023-02-03T04:41:32;102040.00;;;5.13;100.00
32237;BME280;18726;44.732;10.550;2023-02-03T04:44:36;102040.63;;;4.90;100.00
32237;BME280;18726;44.732;10.550;2023-02-03T04:47:40;102047.00;;;5.14;100.00
32237;BME280;18726;44.732;10.550;2023-02-03T04:50:44;102054.84;;;5.05;100.00
32237;BME280;18726;44.732;10.550;2023-02-03T04:53:47;102064.13;;;4.59;100.00
32237;BME280;18726;44.732;10.550;2023-02-03T04:56:51;102054.50;;;5.22;100.00
32237;BME280;18726;44.732;10.550;2023-02-03T04:59:55;102053.44;;;6.06;100.00
32237;BME280;18726;44.732;10.550;2023-02-03T05:02:59;102052.53;;;5.43;100.00
32237;BME280;18726;44.732;10.550;2023-02-03T05:06:03;102036.78;;;6.04;100.00
32237;BME280;18726;44.732;10.550;2023-02-03T05:09:08;102030.75;;;6.13;100.00
32237;BME280;18726;44.732;10.550;2023-02-03T05:12:12;102055.19;;;4.79;100.00
32237;BME280;18726;44.732;10.550;2023-02-03T05:15:15;102045.59;;;5.22;100.00
32237;BME280;18726;44.732;10.550;2023-02-03T05:18:19;102052.59;;;5.28;100.00
32237;BME280;18726;44.732;10.550;2023-02-03T05:21:22;102050.63;;;4.74;100.00
32237;BME280;18726;44.732;10.550;2023-02-03T05:24:26;102052.59;;;3.87;100.00
32237;BME280;18726;44.732;10.550;2023-02-03T05:27:30;102041.06;;;2.99;100.00
32237;BME280;18726;44.732;10.550;2023-02-03T05:30:33;102033.94;;;2.67;100.00
32237;BME280;18726;44.732;10.550;2023-02-03T05:33:37;102021.38;;;2.78;100.00
32237;BME280;18726;44.732;10.550;2023-02-03T05:36:41;102030.00;;;3.88;100.00
32237;BME280;18726;44.732;10.550;2023-02-03T05:39:45;102036.44;;;4.53;100.00
32237;BME280;18726;44.732;10.550;2023-02-03T05:42:49;102033.78;;;4.33;100.00
32237;BME280;18726;44.732;10.550;2023-02-03T05:45:53;102038.50;;;5.46;100.00
32237;BME280;18726;44.732;10.550;2023-02-03T05:48:57;102041.19;;;5.85;100.00
32237;BME280;18726;44.732;10.550;2023-02-03T05:52:06;102039.84;;;6.22;100.00
32237;BME280;18726;44.732;10.550;2023-02-03T05:55:09;102056.81;;;5.88;100.00
32237;BME280;18726;44.732;10.550;2023-02-03T05:58:13;102045.56;;;6.44;100.00
32237;BME280;18726;44.732;10.550;2023-02-03T06:01:18;102043.44;;;6.41;100.00
32237;BME280;18726;44.732;10.550;2023-02-03T06:04:21;102040.38;;;6.76;100.00
32237;BME280;18726;44.732;10.550;2023-02-03T06:07:25;102031.91;;;7.07;100.00
32237;BME280;18726;44.732;10.550;2023-02-03T06:10:28;102035.53;;;7.21;100.00
32237;BME280;18726;44.732;10.550;2023-02-03T06:13:32;102052.31;;;7.18;100.00
32237;BME280;18726;44.732;10.550;2023-02-03T06:16:36;102062.69;;;6.87;100.00
32237;BME280;18726;44.732;10.550;2023-02-03T06:19:39;102079.47;;;5.92;100.00
32237;BME280;18726;44.732;10.550;2023-02-03T06:22:43;102074.66;;;5.79;100.00
32237;BME280;18726;44.732;10.550;2023-02-03T06:25:47;102090.75;;;5.99;100.00
32237;BME280;18726;44.732;10.550;2023-02-03T06:28:52;102081.44;;;6.16;100.00
32237;BME280;18726;44.732;10.550;2023-02-03T06:31:55;102083.22;;;6.59;100.00
32237;BME280;18726;44.732;10.550;2023-02-03T06:34:59;102108.63;;;6.24;100.00
32237;BME280;18726;44.732;10.550;2023-02-03T06:38:04;102122.72;;;6.16;100.00
32237;BME280;18726;44.732;10.550;2023-02-03T06:41:07;102114.13;;;6.43;100.00
32237;BME280;18726;44.732;10.550;2023-02-03T06:44:11;102100.59;;;6.77;100.00
32237;BME280;18726;44.732;10.550;2023-02-03T06:47:15;102095.91;;;6.88;100.00
32237;BME280;18726;44.732;10.550;2023-02-03T06:50:18;102100.06;;;6.46;100.00
32237;BME280;18726;44.732;10.550;2023-02-03T06:53:22;102102.94;;;6.60;100.00
32237;BME280;18726;44.732;10.550;2023-02-03T06:56:26;102112.72;;;6.51;100.00
32237;BME280;18726;44.732;10.550;2023-02-03T06:59:31;102092.78;;;6.75;100.00
32237;BME280;18726;44.732;10.550;2023-02-03T07:02:35;102090.78;;;6.86;100.00
32237;BME280;18726;44.732;10.550;2023-02-03T07:05:38;102088.19;;;7.00;100.00
32237;BME280;18726;44.732;10.550;2023-02-03T07:08:43;102097.06;;;6.19;100.00
32237;BME280;18726;44.732;10.550;2023-02-03T07:11:47;102083.94;;;5.63;100.00
32237;BME280;18726;44.732;10.550;2023-02-03T07:14:51;102104.06;;;6.20;100.00
32237;BME280;18726;44.732;10.550;2023-02-03T07:17:54;102101.34;;;6.83;100.00
32237;BME280;18726;44.732;10.550;2023-02-03T07:20:57;102112.44;;;7.05;100.00
32237;BME280;18726;44.732;10.550;2023-02-03T07:24:01;102130.59;;;7.23;100.00
32237;BME280;18726;44.732;10.550;2023-02-03T07:27:05;102124.53;;;7.13;100.00
32237;BME280;18726;44.732;10.550;2023-02-03T07:30:09;102133.97;;;7.15;100.00
32237;BME280;18726;44.732;10.550;2023-02-03T07:33:13;102158.44;;;7.00;100.00
32237;BME280;18726;44.732;10.550;2023-02-03T07:36:17;102174.28;;;6.83;100.00
32237;BME280;18726;44.732;10.550;2023-02-03T07:39:21;102192.47;;;6.67;100.00
32237;BME280;18726;44.732;10.550;2023-02-03T07:42:25;102212.47;;;6.32;100.00
32237;BME280;18726;44.732;10.550;2023-02-03T07:45:29;102219.69;;;5.82;100.00
32237;BME280;18726;44.732;10.550;2023-02-03T07:48:33;102217.00;;;5.87;100.00
32237;BME280;18726;44.732;10.550;2023-02-03T07:51:37;102207.50;;;6.05;100.00
32237;BME280;18726;44.732;10.550;2023-02-03T07:54:41;102201.59;;;6.42;100.00
32237;BME280;18726;44.732;10.550;2023-02-03T07:57:44;102206.22;;;6.70;100.00
32237;BME280;18726;44.732;10.550;2023-02-03T08:00:48;102201.41;;;6.96;100.00
32237;BME280;18726;44.732;10.550;2023-02-03T08:03:52;102202.75;;;6.99;100.00
32237;BME280;18726;44.732;10.550;2023-02-03T08:06:55;102222.22;;;6.28;100.00
32237;BME280;18726;44.732;10.550;2023-02-03T08:09:58;102228.75;;;6.12;100.00
32237;BME280;18726;44.732;10.550;2023-02-03T08:13:02;102244.66;;;5.23;100.00
32237;BME280;18726;44.732;10.550;2023-02-03T08:16:06;102259.22;;;5.32;100.00
32237;BME280;18726;44.732;10.550;2023-02-03T08:19:10;102235.41;;;5.70;100.00
32237;BME280;18726;44.732;10.550;2023-02-03T08:22:14;102249.28;;;6.07;100.00
32237;BME280;18726;44.732;10.550;2023-02-03T08:25:20;102290.00;;;6.11;100.00
32237;BME280;18726;44.732;10.550;2023-02-03T08:28:23;102289.38;;;5.29;100.00
32237;BME280;18726;44.732;10.550;2023-02-03T08:31:27;102281.31;;;5.29;100.00
32237;BME280;18726;44.732;10.550;2023-02-03T08:34:30;102286.16;;;5.42;100.00
32237;BME280;18726;44.732;10.550;2023-02-03T08:37:36;102303.34;;;5.67;100.00
32237;BME280;18726;44.732;10.550;2023-02-03T08:40:40;102299.28;;;5.69;100.00
32237;BME280;18726;44.732;10.550;2023-02-03T08:43:44;102299.63;;;4.77;100.00
32237;BME280;18726;44.732;10.550;2023-02-03T08:46:49;102271.88;;;5.42;100.00
32237;BME280;18726;44.732;10.550;2023-02-03T08:49:53;102259.25;;;5.17;100.00
32237;BME280;18726;44.732;10.550;2023-02-03T08:52:57;102260.31;;;4.96;100.00
32237;BME280;18726;44.732;10.550;2023-02-03T08:56:04;102267.16;;;5.83;100.00
32237;BME280;18726;44.732;10.550;2023-02-03T08:59:08;102261.75;;;7.92;100.00
32237;BME280;18726;44.732;10.550;2023-02-03T09:02:15;102281.09;;;9.17;100.00
32237;BME280;18726;44.732;10.550;2023-02-03T09:05:19;102269.75;;;8.02;96.47
32237;BME280;18726;44.732;10.550;2023-02-03T09:08:22;102258.41;;;7.53;100.00
32237;BME280;18726;44.732;10.550;2023-02-03T09:11:26;102249.00;;;8.73;100.00
32237;BME280;18726;44.732;10.550;2023-02-03T09:14:31;102241.28;;;11.25;100.00
32237;BME280;18726;44.732;10.550;2023-02-03T09:17:35;102234.00;;;14.92;85.96
32237;BME280;18726;44.732;10.550;2023-02-03T09:20:39;102238.19;;;17.35;68.71
32237;BME280;18726;44.732;10.550;2023-02-03T09:23:44;102232.31;;;18.73;59.55
32237;BME280;18726;44.732;10.550;2023-02-03T09:26:48;102239.59;;;19.08;56.17
32237;BME280;18726;44.732;10.550;2023-02-03T09:29:51;102236.47;;;19.78;55.83
32237;BME280;18726;44.732;10.550;2023-02-03T09:32:55;102243.88;;;20.94;50.82
32237;BME280;18726;44.732;10.550;2023-02-03T09:35:59;102246.34;;;22.01;44.85
32237;BME280;18726;44.732;10.550;2023-02-03T09:39:03;102246.09;;;22.28;40.67
32237;BME280;18726;44.732;10.550;2023-02-03T09:45:28;102239.75;;;20.43;43.08
32237;BME280;18726;44.732;10.550;2023-02-03T09:48:39;102236.03;;;20.99;41.70
32237;BME280;18726;44.732;10.550;2023-02-03T09:55:01;102237.50;;;19.96;45.28
32237;BME280;18726;44.732;10.550;2023-02-03T09:58:10;102240.25;;;21.78;39.16
32237;BME280;18726;44.732;10.550;2023-02-03T10:01:16;102227.00;;;22.01;42.12
32237;BME280;18726;44.732;10.550;2023-02-03T10:04:46;102226.31;;;22.22;40.08
32237;BME280;18726;44.732;10.550;2023-02-03T10:11:45;102235.69;;;23.47;36.17
32237;BME280;18726;44.732;10.550;2023-02-03T10:18:18;102246.84;;;25.36;36.76
32237;BME280;18726;44.732;10.550;2023-02-03T10:21:42;102228.16;;;23.22;41.72
32237;BME280;18726;44.732;10.550;2023-02-03T10:27:59;102251.69;;;24.62;38.75
32237;BME280;18726;44.732;10.550;2023-02-03T10:31:17;102238.31;;;26.63;36.20
32237;BME280;18726;44.732;10.550;2023-02-03T10:34:23;102233.75;;;28.55;32.59
32237;BME280;18726;44.732;10.550;2023-02-03T10:37:30;102228.94;;;29.41;30.55
32237;BME280;18726;44.732;10.550;2023-02-03T10:40:37;102217.63;;;29.61;28.17
32237;BME280;18726;44.732;10.550;2023-02-03T10:43:41;102211.75;;;28.38;32.14
32237;BME280;18726;44.732;10.550;2023-02-03T10:46:52;102203.63;;;25.24;34.25
32237;BME280;18726;44.732;10.550;2023-02-03T10:49:56;102200.59;;;22.25;38.91
32237;BME280;18726;44.732;10.550;2023-02-03T10:53:24;102194.69;;;17.69;49.96
32237;BME280;18726;44.732;10.550;2023-02-03T10:56:38;102196.44;;;15.26;65.44
32237;BME280;18726;44.732;10.550;2023-02-03T10:59:45;102193.94;;;13.71;76.97
32237;BME280;18726;44.732;10.550;2023-02-03T11:03:06;102182.94;;;12.23;85.33
32237;BME280;18726;44.732;10.550;2023-02-03T11:06:15;102179.56;;;12.51;90.40
32237;BME280;18726;44.732;10.550;2023-02-03T11:09:40;102171.22;;;12.57;86.41
32237;BME280;18726;44.732;10.550;2023-02-03T11:12:44;102155.38;;;11.81;90.21
32237;BME280;18726;44.732;10.550;2023-02-03T11:16:04;102152.81;;;12.28;91.48
32237;BME280;18726;44.732;10.550;2023-02-03T11:19:20;102157.63;;;12.31;89.56
32237;BME280;18726;44.732;10.550;2023-02-03T11:22:29;102160.53;;;13.36;92.41
32237;BME280;18726;44.732;10.550;2023-02-03T11:25:34;102160.63;;;13.19;86.27
32237;BME280;18726;44.732;10.550;2023-02-03T11:28:44;102151.16;;;13.55;83.84
32237;BME280;18726;44.732;10.550;2023-02-03T11:31:50;102150.66;;;13.23;86.29
32237;BME280;18726;44.732;10.550;2023-02-03T11:35:00;102150.13;;;14.09;90.11
32237;BME280;18726;44.732;10.550;2023-02-03T11:38:41;102146.84;;;13.95;83.77
32237;BME280;18726;44.732;10.550;2023-02-03T11:41:47;102144.16;;;13.36;83.90
32237;BME280;18726;44.732;10.550;2023-02-03T11:44:53;102128.91;;;13.65;89.78
32237;BME280;18726;44.732;10.550;2023-02-03T11:48:31;102126.38;;;13.60;91.10
32237;BME280;18726;44.732;10.550;2023-02-03T11:51:47;102132.22;;;14.33;91.83
32237;BME280;18726;44.732;10.550;2023-02-03T11:58:54;102132.03;;;14.38;84.32
32237;BME280;18726;44.732;10.550;2023-02-03T12:15:37;102063.75;;;15.11;96.59
32237;BME280;18726;44.732;10.550;2023-02-03T12:25:57;102027.59;;;13.16;90.80
32237;BME280;18726;44.732;10.550;2023-02-03T12:29:04;102009.91;;;13.22;99.67
32237;BME280;18726;44.732;10.550;2023-02-03T12:32:18;102008.66;;;13.11;96.33
32237;BME280;18726;44.732;10.550;2023-02-03T12:35:33;101998.59;;;13.03;100.00
32237;BME280;18726;44.732;10.550;2023-02-03T12:39:05;101993.03;;;13.62;100.00
32237;BME280;18726;44.732;10.550;2023-02-03T12:42:20;101986.09;;;14.30;100.00
32237;BME280;18726;44.732;10.550;2023-02-03T12:45:31;101984.88;;;14.52;92.14
32237;BME280;18726;44.732;10.550;2023-02-03T12:55:19;101968.41;;;14.15;99.63
32237;BME280;18726;44.732;10.550;2023-02-03T12:58:28;101967.81;;;13.65;91.84
32237;BME280;18726;44.732;10.550;2023-02-03T13:01:37;101957.59;;;13.20;89.93
32237;BME280;18726;44.732;10.550;2023-02-03T13:04:53;101942.28;;;13.48;100.00
32237;BME280;18726;44.732;10.550;2023-02-03T13:12:27;101934.16;;;13.19;100.00
32237;BME280;18726;44.732;10.550;2023-02-03T13:15:43;101932.41;;;13.56;100.00
32237;BME280;18726;44.732;10.550;2023-02-03T13:18:52;101909.19;;;13.08;96.96
32237;BME280;18726;44.732;10.550;2023-02-03T13:21:56;101900.72;;;12.80;100.00
32237;BME280;18726;44.732;10.550;2023-02-03T13:25:16;101900.97;;;13.17;100.00
32237;BME280;18726;44.732;10.550;2023-02-03T13:29:18;101888.28;;;13.33;100.00
32237;BME280;18726;44.732;10.550;2023-02-03T13:42:26;101900.13;;;13.37;94.66
32237;BME280;18726;44.732;10.550;2023-02-03T13:45:31;101891.00;;;13.66;100.00
32237;BME280;18726;44.732;10.550;2023-02-03T13:48:36;101884.63;;;14.07;100.00
32237;BME280;18726;44.732;10.550;2023-02-03T13:51:44;101887.56;;;14.27;95.14
32237;BME280;18726;44.732;10.550;2023-02-03T13:54:48;101885.25;;;13.92;86.82
32237;BME280;18726;44.732;10.550;2023-02-03T13:57:52;101881.03;;;13.70;93.95
32237;BME280;18726;44.732;10.550;2023-02-03T14:07:34;101866.31;;;13.50;87.13
32237;BME280;18726;44.732;10.550;2023-02-03T14:10:40;101860.50;;;13.19;88.88
32237;BME280;18726;44.732;10.550;2023-02-03T14:13:47;101859.53;;;13.15;89.64
32237;BME280;18726;44.732;10.550;2023-02-03T14:16:51;101856.09;;;13.27;98.27
32237;BME280;18726;44.732;10.550;2023-02-03T14:19:57;101856.22;;;13.30;97.98
32237;BME280;18726;44.732;10.550;2023-02-03T14:26:16;101860.84;;;13.50;100.00
32237;BME280;18726;44.732;10.550;2023-02-03T14:29:29;101867.09;;;13.51;99.39
32237;BME280;18726;44.732;10.550;2023-02-03T14:32:50;101869.38;;;13.28;91.57
32237;BME280;18726;44.732;10.550;2023-02-03T14:35:54;101863.22;;;12.98;95.28
32237;BME280;18726;44.732;10.550;2023-02-03T14:39:01;101869.13;;;12.79;98.87
32237;BME280;18726;44.732;10.550;2023-02-03T14:42:35;101861.13;;;12.74;98.23
32237;BME280;18726;44.732;10.550;2023-02-03T14:46:24;101849.06;;;12.84;100.00
32237;BME280;18726;44.732;10.550;2023-02-03T14:59:29;101831.66;;;11.88;99.03
32237;BME280;18726;44.732;10.550;2023-02-03T15:06:50;101834.69;;;11.95;100.00
32237;BME280;18726;44.732;10.550;2023-02-03T15:09:53;101833.03;;;12.11;100.00
32237;BME280;18726;44.732;10.550;2023-02-03T15:12:59;101831.97;;;12.25;100.00
32237;BME280;18726;44.732;10.550;2023-02-03T15:16:04;101833.19;;;12.36;100.00
32237;BME280;18726;44.732;10.550;2023-02-03T15:19:19;101835.59;;;12.37;100.00
32237;BME280;18726;44.732;10.550;2023-02-03T15:22:27;101832.25;;;12.32;100.00
32237;BME280;18726;44.732;10.550;2023-02-03T15:25:31;101827.19;;;12.22;100.00
32237;BME280;18726;44.732;10.550;2023-02-03T15:28:35;101826.72;;;12.20;100.00
32237;BME280;18726;44.732;10.550;2023-02-03T15:31:42;101821.91;;;12.16;100.00
32237;BME280;18726;44.732;10.550;2023-02-03T15:34:49;101817.38;;;12.29;100.00
32237;BME280;18726;44.732;10.550;2023-02-03T15:37:55;101826.81;;;12.32;100.00
32237;BME280;18726;44.732;10.550;2023-02-03T15:41:00;101829.72;;;12.27;100.00
32237;BME280;18726;44.732;10.550;2023-02-03T15:44:13;101818.63;;;12.02;100.00
32237;BME280;18726;44.732;10.550;2023-02-03T15:47:33;101802.94;;;11.99;100.00
32237;BME280;18726;44.732;10.550;2023-02-03T15:50:41;101803.25;;;12.06;100.00
32237;BME280;18726;44.732;10.550;2023-02-03T15:57:02;101782.81;;;11.92;100.00
32237;BME280;18726;44.732;10.550;2023-02-03T16:00:32;101784.78;;;11.74;100.00
32237;BME280;18726;44.732;10.550;2023-02-03T16:03:39;101780.91;;;11.28;100.00
32237;BME280;18726;44.732;10.550;2023-02-03T16:06:49;101783.41;;;10.95;100.00
32237;BME280;18726;44.732;10.550;2023-02-03T16:09:55;101779.72;;;10.91;100.00
32237;BME280;18726;44.732;10.550;2023-02-03T16:19:28;101795.88;;;10.70;100.00
32237;BME280;18726;44.732;10.550;2023-02-03T16:23:03;101798.72;;;10.48;100.00
32237;BME280;18726;44.732;10.550;2023-02-03T16:29:17;101768.84;;;9.74;100.00
32237;BME280;18726;44.732;10.550;2023-02-03T16:32:39;101759.22;;;9.68;100.00
32237;BME280;18726;44.732;10.550;2023-02-03T16:36:10;101747.56;;;9.67;100.00
32237;BME280;18726;44.732;10.550;2023-02-03T16:42:50;101752.47;;;9.57;100.00
32237;BME280;18726;44.732;10.550;2023-02-03T16:46:12;101737.97;;;9.53;100.00
32237;BME280;18726;44.732;10.550;2023-02-03T16:49:35;101738.84;;;9.39;100.00
32237;BME280;18726;44.732;10.550;2023-02-03T16:52:57;101755.50;;;9.55;100.00
32237;BME280;18726;44.732;10.550;2023-02-03T16:56:02;101760.56;;;9.79;100.00
32237;BME280;18726;44.732;10.550;2023-02-03T16:59:06;101743.47;;;9.78;100.00
32237;BME280;18726;44.732;10.550;2023-02-03T17:02:10;101762.63;;;9.82;100.00
32237;BME280;18726;44.732;10.550;2023-02-03T17:05:14;101774.66;;;9.59;100.00
32237;BME280;18726;44.732;10.550;2023-02-03T17:08:21;101783.28;;;9.61;100.00
32237;BME280;18726;44.732;10.550;2023-02-03T17:11:25;101772.78;;;9.68;100.00
32237;BME280;18726;44.732;10.550;2023-02-03T17:14:29;101764.84;;;9.40;100.00
32237;BME280;18726;44.732;10.550;2023-02-03T17:17:33;101755.00;;;9.44;100.00
32237;BME280;18726;44.732;10.550;2023-02-03T17:20:36;101757.91;;;9.57;100.00
32237;BME280;18726;44.732;10.550;2023-02-03T17:23:41;101761.66;;;9.38;100.00
32237;BME280;18726;44.732;10.550;2023-02-03T17:26:44;101759.78;;;9.47;100.00
32237;BME280;18726;44.732;10.550;2023-02-03T17:29:48;101763.94;;;9.45;100.00
32237;BME280;18726;44.732;10.550;2023-02-03T17:32:52;101768.59;;;9.22;100.00
32237;BME280;18726;44.732;10.550;2023-02-03T17:36:06;101760.19;;;9.32;100.00
32237;BME280;18726;44.732;10.550;2023-02-03T17:39:11;101757.25;;;9.20;100.00
32237;BME280;18726;44.732;10.550;2023-02-03T17:42:15;101742.63;;;8.76;100.00
32237;BME280;18726;44.732;10.550;2023-02-03T17:45:19;101729.50;;;8.70;100.00
32237;BME280;18726;44.732;10.550;2023-02-03T17:48:22;101728.56;;;8.52;100.00
32237;BME280;18726;44.732;10.550;2023-02-03T17:51:26;101732.81;;;8.44;100.00
32237;BME280;18726;44.732;10.550;2023-02-03T17:54:32;101732.25;;;8.34;100.00
32237;BME280;18726;44.732;10.550;2023-02-03T17:57:36;101715.59;;;8.27;100.00
32237;BME280;18726;44.732;10.550;2023-02-03T18:00:40;101719.59;;;8.29;100.00
32237;BME280;18726;44.732;10.550;2023-02-03T18:03:45;101717.81;;;8.25;100.00
32237;BME280;18726;44.732;10.550;2023-02-03T18:06:49;101720.22;;;8.26;100.00
32237;BME280;18726;44.732;10.550;2023-02-03T18:09:53;101714.41;;;8.19;100.00